createdAt,value
2023-04-19T00:04:26.482Z,27.9
2023-04-19T00:27:06.913Z,27.8
2023-04-19T00:32:43.571Z,27.8
2023-04-19T00:38:34.740Z,27.7
2023-04-19T00:44:10.908Z,27.7
2023-04-19T00:49:47.692Z,27.7
2023-04-19T00:55:39.572Z,27.6
2023-04-19T01:01:00.637Z,27.6
2023-04-19T01:06:54.724Z,27.8
2023-04-19T01:12:32.843Z,28.3
2023-04-19T01:18:24.515Z,28.9
2023-04-19T01:24:00.274Z,29.4
2023-04-19T01:29:51.451Z,29.9
2023-04-19T01:35:28.134Z,30.4
2023-04-19T01:40:48.916Z,30.9
2023-04-19T01:46:40.455Z,31.3
2023-04-19T01:52:01.159Z,31.8
2023-04-19T01:57:21.629Z,32.3
2023-04-19T02:03:14.711Z,32.8
2023-04-19T02:09:07.401Z,33.2
2023-04-19T02:14:58.962Z,33.6
2023-04-19T02:20:36.120Z,33.8
2023-04-19T02:26:27.565Z,33.9
2023-04-19T02:32:03.832Z,34
2023-04-19T02:37:25.850Z,34.3
2023-04-19T02:42:46.453Z,34.3
2023-04-19T02:48:37.695Z,34.3
2023-04-19T02:54:28.911Z,34.4
2023-04-19T03:00:20.138Z,34.4
2023-04-19T03:11:18.177Z,34.4
2023-04-19T03:16:54.778Z,34.4
2023-04-19T03:22:31.616Z,34.4
2023-04-19T03:28:07.464Z,34.4
2023-04-19T03:33:30.264Z,34.4
2023-04-19T03:39:21.948Z,34.4
2023-04-19T03:44:43.065Z,34.4
2023-04-19T03:50:03.995Z,34.4
2023-04-19T03:55:56.269Z,34.4
2023-04-19T04:01:49.476Z,34.4
2023-04-19T04:07:45.874Z,34.4
2023-04-19T04:13:37.463Z,34.3
2023-04-19T04:19:15.059Z,34.3
2023-04-19T04:24:51.669Z,34.3
2023-04-19T04:36:06.847Z,34.2
2023-04-19T04:41:39.336Z,34.2
2023-04-19T04:47:44.218Z,34
2023-04-19T04:53:36.657Z,33.9
2023-04-19T04:59:27.385Z,33.9
2023-04-19T05:05:04.905Z,33.9
2023-04-19T05:10:40.681Z,33.9
2023-04-19T05:16:16.621Z,33.8
2023-04-19T05:21:54.786Z,33.8
2023-04-19T05:27:18.279Z,33.6
2023-04-19T05:33:10.674Z,33.5
2023-04-19T05:38:50.282Z,33.4
2023-04-19T05:44:28.596Z,33.3
2023-04-19T05:50:07.728Z,33.2
2023-04-19T05:55:44.567Z,33.1
2023-04-19T06:01:20.856Z,33
2023-04-19T06:07:08.260Z,32.9
2023-04-19T06:13:29.691Z,32.9
2023-04-19T06:19:09.138Z,32.7
2023-04-19T06:24:45.197Z,32.6
2023-04-19T06:32:48.855Z,32.4
2023-04-19T06:38:25.771Z,32.3
2023-04-19T06:44:02.724Z,32.3
2023-04-19T06:49:39.669Z,32.2
2023-04-19T06:55:17.233Z,32.1
2023-04-19T07:00:53.430Z,32
2023-04-19T07:06:32.004Z,31.8
2023-04-19T07:12:26.100Z,31.1
2023-04-19T07:18:02.228Z,30.6
2023-04-19T07:23:39.432Z,30.4
2023-04-19T07:28:45.939Z,30.2
2023-04-19T07:34:23.215Z,30.1
2023-04-19T07:39:59.633Z,30
2023-04-19T07:45:37.060Z,29.9
2023-04-19T07:51:13.634Z,29.8
2023-04-19T07:56:49.693Z,29.7
2023-04-19T08:02:38.346Z,29.6
2023-04-19T08:08:18.533Z,29.3
2023-04-19T08:14:35.332Z,28.9
2023-04-19T08:21:47.704Z,28.5
2023-04-19T08:27:49.296Z,28.3
2023-04-19T08:33:44.186Z,28.1
2023-04-19T08:39:50.383Z,28
2023-04-19T08:46:08.143Z,27.9
2023-04-19T08:52:52.276Z,27.9
2023-04-19T09:05:50.782Z,38.6
2023-04-19T09:11:42.066Z,40.4
2023-04-19T09:17:31.375Z,38.4
2023-04-19T09:23:50.663Z,45.6
2023-04-19T09:30:14.932Z,46
2023-04-19T09:37:04.650Z,46.9
2023-04-19T09:50:50.832Z,48.3
2023-04-19T09:56:46.174Z,48.8
2023-04-19T10:03:25.888Z,48.4
2023-04-19T10:10:59.198Z,49.4
2023-04-19T10:18:06.644Z,50.9
2023-04-19T10:23:58.580Z,50.3
2023-04-19T10:29:19.142Z,52.2
2023-04-19T10:34:56.601Z,51.8
2023-04-19T10:40:49.272Z,53.1
2023-04-19T10:46:26.097Z,54
2023-04-19T10:52:03.701Z,53.8
2023-04-19T10:57:40.027Z,54.6
2023-04-19T11:03:20.889Z,55.4
2023-04-19T11:09:17.510Z,55.6
2023-04-19T11:14:54.333Z,56.4
2023-04-19T11:21:11.038Z,55.8
2023-04-19T11:27:05.075Z,56.9
2023-04-19T11:32:58.384Z,56.9
2023-04-19T11:38:51.300Z,57.5
2023-04-19T11:50:17.652Z,57.4
2023-04-19T11:56:11.166Z,57.8
2023-04-19T12:01:48.499Z,58.4
2023-04-19T12:06:57.128Z,58.8
2023-04-19T12:12:18.576Z,59.2
2023-04-19T12:18:29.501Z,58.8
2023-04-19T12:24:08.201Z,59.5
2023-04-19T12:31:20.985Z,59.9
2023-04-19T12:37:13.630Z,60.4
2023-04-19T12:42:50.051Z,59.8
2023-04-19T12:48:42.376Z,59.6
2023-04-19T13:02:54.645Z,56.4
2023-04-19T13:09:01.635Z,51.5
2023-04-19T13:14:53.309Z,48.3
2023-04-19T13:20:30.338Z,45.8
2023-04-19T13:26:06.471Z,44
2023-04-19T13:31:57.471Z,42.4
2023-04-19T13:37:49.556Z,41.3
2023-04-19T13:43:57.412Z,40.2
2023-04-19T13:49:51.741Z,39.3
2023-04-19T13:55:43.916Z,38.6
2023-04-19T14:01:38.961Z,37.9
2023-04-19T14:07:33.213Z,37.4
2023-04-19T14:13:25.609Z,36.9
2023-04-19T14:19:03.059Z,36.4
2023-04-19T14:24:39.547Z,36.1
2023-04-19T14:30:47.837Z,35.7
2023-04-19T14:36:55.478Z,35.4
2023-04-19T14:42:32.541Z,35.1
2023-04-19T14:48:25.191Z,34.8
2023-04-19T14:54:17.553Z,34.6
2023-04-19T15:00:09.652Z,34.3
2023-04-19T15:05:49.254Z,34.1
2023-04-19T15:11:46.965Z,33.9
2023-04-19T15:17:41.808Z,33.8
2023-04-19T15:23:36.270Z,33.6
2023-04-19T15:29:13.073Z,33.4
2023-04-19T15:34:50.126Z,33.3
2023-04-19T15:40:42.229Z,33.1
2023-04-19T15:46:21.335Z,32.9
2023-04-19T15:52:13.319Z,32.7
2023-04-19T15:57:51.884Z,32.6
2023-04-19T16:03:48.166Z,32.4
2023-04-19T16:09:25.899Z,32.3
2023-04-19T16:15:17.799Z,32.2
2023-04-19T16:20:55.080Z,32.1
2023-04-19T16:26:46.886Z,31.9
2023-04-19T16:32:26.002Z,31.9
2023-04-19T16:37:46.965Z,31.8
2023-04-19T16:43:07.999Z,31.6
2023-04-19T16:48:14.245Z,31.6
2023-04-19T16:53:53.209Z,31.5
2023-04-19T16:59:14.463Z,31.4
2023-04-19T17:04:53.795Z,31.3
2023-04-19T17:10:30.602Z,31.2
2023-04-19T17:15:51.433Z,31.1
2023-04-19T17:21:13.286Z,31
2023-04-19T17:26:49.401Z,30.9
2023-04-19T17:32:26.654Z,30.9
2023-04-19T17:38:03.097Z,30.8
2023-04-19T17:43:39.618Z,30.8
2023-04-19T17:49:18.377Z,30.5
2023-04-19T17:54:54.992Z,30.1
2023-04-19T18:00:31.770Z,29.8
2023-04-19T18:06:09.962Z,29.7
2023-04-19T18:11:46.918Z,29.5
2023-04-19T18:17:23.244Z,29.4
2023-04-19T18:23:15.775Z,29.3
2023-04-19T18:28:54.326Z,28.8
2023-04-19T18:34:32.039Z,27.8
2023-04-19T18:40:24.913Z,26.6
2023-04-19T18:46:44.414Z,25.7
2023-04-19T18:52:33.703Z,25
2023-04-19T18:58:50.905Z,24.5
2023-04-19T19:05:25.827Z,24.1
2023-04-19T19:12:34.266Z,23.7
2023-04-19T19:18:48.588Z,23.5
2023-04-19T19:24:42.136Z,23.3
2023-04-19T19:30:42.316Z,23.1
2023-04-19T19:36:50.656Z,22.9
2023-04-19T19:43:42.285Z,22.8
2023-04-19T19:48:59.615Z,22.7
2023-04-19T19:55:58.744Z,22.6
2023-04-19T20:04:26.947Z,22.4
2023-04-19T20:11:41.347Z,22.3
2023-04-19T20:17:17.882Z,22.1
2023-04-19T20:23:09.662Z,22.1
2023-04-19T20:29:01.453Z,21.9
2023-04-19T20:34:53.058Z,21.9
2023-04-19T20:40:45.440Z,21.8
2023-04-19T20:46:21.364Z,21.8
2023-04-19T20:52:12.228Z,21.7
2023-04-19T20:58:04.128Z,21.6
2023-04-19T21:03:57.809Z,21.6
2023-04-19T21:09:50.181Z,21.6
2023-04-19T21:15:26.948Z,21.6
2023-04-19T21:21:19.547Z,21.5
2023-04-19T21:27:10.499Z,21.4
2023-04-19T21:33:02.724Z,21.4
2023-04-19T21:38:38.810Z,21.4
2023-04-19T21:44:29.656Z,21.4
2023-04-19T21:50:21.376Z,21.3
2023-04-19T21:56:27.689Z,21.3
2023-04-19T22:02:20.825Z,21.3
2023-04-19T22:08:13.276Z,21.3
2023-04-19T22:14:19.458Z,21.3
2023-04-19T22:20:10.904Z,21.2
2023-04-19T22:26:18.333Z,21.2
2023-04-19T22:32:09.497Z,21.2
2023-04-19T22:37:59.834Z,21.2
2023-04-19T23:22:18.837Z,21.1
2023-04-19T23:28:12.450Z,21.1
2023-04-19T23:34:04.750Z,21.1
2023-04-19T23:39:40.147Z,21.1
2023-04-19T23:45:33.435Z,21.1
2023-04-19T23:51:25.179Z,21.1
2023-04-19T23:57:16.164Z,21.1
